Time;durP1;ratioP1;P1;durP2;ratioP2;P2;SDS_P1;SDS_P2;PMS_P1;PMS_P2;Temp;Humidity;BMP_temperature;BMP_pressure;BME280_temperature;BME280_humidity;BME280_pressure;Samples;Min_cycle;Max_cycle;Signal;HPM_P1;HPM_P2
2022/07/15 00:00:51;;;;;;;6.40;1.83;;;;;;;;;;5073154;28;20087;-64
2022/07/15 00:03:17;;;;;;;6.05;1.73;;;;;;;;;;5081551;28;20172;-64
2022/07/15 00:05:45;;;;;;;5.05;1.77;;;;;;;;;;5077902;28;20119;-64
2022/07/15 00:08:11;;;;;;;4.85;1.70;;;;;;;;;;5072554;28;20563;-64
2022/07/15 00:10:37;;;;;;;6.70;1.77;;;;;;;;;;5074269;28;20073;-64
2022/07/15 00:13:03;;;;;;;6.85;1.85;;;;;;;;;;5077897;28;20101;-64
2022/07/15 00:15:30;;;;;;;5.05;2.10;;;;;;;;;;5071571;28;20036;-64
2022/07/15 00:18:01;;;;;;;4.88;1.95;;;;;;;;;;5078388;28;20139;-64
2022/07/15 00:20:27;;;;;;;4.93;1.88;;;;;;;;;;5070164;28;20056;-64
2022/07/15 00:22:53;;;;;;;6.47;2.20;;;;;;;;;;5074795;28;20028;-64
2022/07/15 00:25:19;;;;;;;6.93;2.45;;;;;;;;;;5074955;28;20043;-64
2022/07/15 00:27:52;;;;;;;7.35;2.20;;;;;;;;;;5072744;28;20040;-64
2022/07/15 00:30:18;;;;;;;7.25;2.22;;;;;;;;;;5074750;28;20886;-64
2022/07/15 00:32:44;;;;;;;5.82;2.33;;;;;;;;;;5079342;28;20060;-64
2022/07/15 00:35:10;;;;;;;7.15;2.22;;;;;;;;;;5076354;28;20525;-64
2022/07/15 00:37:36;;;;;;;6.10;2.53;;;;;;;;;;5071466;28;20036;-64
2022/07/15 00:40:02;;;;;;;5.55;2.15;;;;;;;;;;5075204;28;20037;-64
2022/07/15 00:42:43;;;;;;;6.85;2.50;;;;;;;;;;5072892;28;20452;-64
2022/07/15 00:45:10;;;;;;;6.80;2.35;;;;;;;;;;5073458;28;20047;-64
2022/07/15 00:47:36;;;;;;;5.97;2.58;;;;;;;;;;5075026;28;20032;-64
2022/07/15 00:50:02;;;;;;;6.05;2.10;;;;;;;;;;5076855;28;20079;-64
2022/07/15 00:52:29;;;;;;;7.82;2.58;;;;;;;;;;5072001;28;20040;-64
2022/07/15 00:54:56;;;;;;;5.15;2.45;;;;;;;;;;5074148;28;20089;-64
2022/07/15 00:57:23;;;;;;;6.65;2.38;;;;;;;;;;5070665;28;20044;-64
2022/07/15 00:59:50;;;;;;;6.30;2.60;;;;;;;;;;5072772;28;20044;-64
2022/07/15 01:02:16;;;;;;;4.95;2.30;;;;;;;;;;5074849;28;20051;-64
2022/07/15 01:04:42;;;;;;;7.13;2.28;;;;;;;;;;5070777;28;20067;-64
2022/07/15 01:07:08;;;;;;;6.03;2.10;;;;;;;;;;5069066;28;20037;-64
2022/07/15 01:09:34;;;;;;;7.35;2.35;;;;;;;;;;5077059;28;20409;-64
2022/07/15 01:12:00;;;;;;;8.20;2.05;;;;;;;;;;5071234;28;20043;-64
2022/07/15 01:14:26;;;;;;;5.63;2.30;;;;;;;;;;5076194;28;20037;-64
2022/07/15 01:16:53;;;;;;;6.35;2.30;;;;;;;;;;5070680;28;20044;-64
2022/07/15 01:19:19;;;;;;;5.72;2.22;;;;;;;;;;5078036;28;20052;-64
2022/07/15 01:21:45;;;;;;;5.25;1.95;;;;;;;;;;5079456;28;20509;-64
2022/07/15 01:24:12;;;;;;;9.35;2.30;;;;;;;;;;5069035;28;20040;-64
2022/07/15 01:26:38;;;;;;;11.10;2.25;;;;;;;;;;5071784;28;20111;-64
2022/07/15 01:29:04;;;;;;;7.63;1.92;;;;;;;;;;5078268;28;20469;-64
2022/07/15 01:31:30;;;;;;;6.43;1.98;;;;;;;;;;5069740;28;20036;-64
2022/07/15 01:33:56;;;;;;;8.30;2.47;;;;;;;;;;5071834;28;20047;-64
2022/07/15 01:36:22;;;;;;;7.18;2.33;;;;;;;;;;5071862;28;20056;-64
2022/07/15 01:38:48;;;;;;;6.05;2.17;;;;;;;;;;5067199;28;20044;-64
2022/07/15 01:41:14;;;;;;;5.90;2.25;;;;;;;;;;5075472;28;20487;-64
2022/07/15 01:43:40;;;;;;;8.25;2.63;;;;;;;;;;5081517;28;20126;-64
2022/07/15 01:46:06;;;;;;;7.07;2.15;;;;;;;;;;5064347;28;20032;-64
2022/07/15 01:51:17;;;;;;;8.65;2.20;;;;;;;;;;5074223;28;20486;-64
2022/07/15 01:53:43;;;;;;;8.82;2.08;;;;;;;;;;5070512;28;20025;-64
2022/07/15 01:56:09;;;;;;;5.32;2.00;;;;;;;;;;5067982;28;20047;-64
2022/07/15 01:58:35;;;;;;;6.22;1.90;;;;;;;;;;5068923;28;20048;-64
2022/07/15 02:01:01;;;;;;;8.90;2.30;;;;;;;;;;5072196;28;20028;-64
2022/07/15 02:03:27;;;;;;;12.40;2.40;;;;;;;;;;5063929;28;20089;-64
2022/07/15 02:05:53;;;;;;;11.40;2.47;;;;;;;;;;5081248;28;20028;-64
2022/07/15 02:08:19;;;;;;;5.10;2.00;;;;;;;;;;5070760;28;20041;-64
2022/07/15 02:10:45;;;;;;;7.78;1.83;;;;;;;;;;5067261;28;20182;-64
2022/07/15 02:13:12;;;;;;;7.78;1.95;;;;;;;;;;5079402;28;20109;-64
2022/07/15 02:15:39;;;;;;;8.20;2.10;;;;;;;;;;5083850;28;20047;-64
2022/07/15 02:18:05;;;;;;;6.90;2.00;;;;;;;;;;5079120;28;20417;-64
2022/07/15 02:20:32;;;;;;;8.98;2.05;;;;;;;;;;5071438;28;20037;-64
2022/07/15 02:22:58;;;;;;;7.38;2.00;;;;;;;;;;5071234;28;20482;-64
2022/07/15 02:25:29;;;;;;;5.57;2.10;;;;;;;;;;5070340;28;20040;-64
2022/07/15 02:27:58;;;;;;;6.03;1.97;;;;;;;;;;5070022;28;20043;-65
2022/07/15 02:30:28;;;;;;;8.70;2.30;;;;;;;;;;5069975;28;20448;-64
2022/07/15 02:32:55;;;;;;;7.28;1.92;;;;;;;;;;5058881;28;20040;-64
2022/07/15 02:35:22;;;;;;;5.95;1.88;;;;;;;;;;5076995;28;20110;-64
2022/07/15 02:37:48;;;;;;;7.68;1.98;;;;;;;;;;5076576;28;20497;-64
2022/07/15 02:40:14;;;;;;;8.02;1.95;;;;;;;;;;5070082;28;20483;-64
2022/07/15 02:42:40;;;;;;;6.20;1.75;;;;;;;;;;5074530;28;20081;-64
2022/07/15 02:45:07;;;;;;;5.38;2.10;;;;;;;;;;5075822;28;20028;-64
2022/07/15 02:47:33;;;;;;;4.75;1.90;;;;;;;;;;5072902;28;20036;-64
2022/07/15 02:49:59;;;;;;;6.88;1.88;;;;;;;;;;5072237;28;20036;-64
2022/07/15 02:52:26;;;;;;;6.07;1.80;;;;;;;;;;5074948;28;20076;-64
2022/07/15 02:54:52;;;;;;;5.78;2.10;;;;;;;;;;5079618;28;20505;-64
2022/07/15 02:57:19;;;;;;;7.18;2.00;;;;;;;;;;5072929;28;20076;-64
2022/07/15 02:59:45;;;;;;;8.90;1.90;;;;;;;;;;5074931;28;20055;-64
2022/07/15 03:02:11;;;;;;;8.57;2.08;;;;;;;;;;5073472;28;20490;-64
2022/07/15 03:04:37;;;;;;;5.57;1.83;;;;;;;;;;5081708;28;20049;-64
2022/07/15 03:07:03;;;;;;;5.57;1.85;;;;;;;;;;5074951;28;20406;-64
2022/07/15 03:09:29;;;;;;;5.40;2.00;;;;;;;;;;5075274;28;20093;-64
2022/07/15 03:11:56;;;;;;;4.80;1.73;;;;;;;;;;5078957;28;20044;-64
2022/07/15 03:14:22;;;;;;;5.65;2.13;;;;;;;;;;5081917;28;20078;-64
2022/07/15 03:16:48;;;;;;;6.93;1.65;;;;;;;;;;5078891;28;20044;-64
2022/07/15 03:19:13;;;;;;;7.47;1.80;;;;;;;;;;5072948;28;20049;-64
2022/07/15 03:21:39;;;;;;;7.63;2.10;;;;;;;;;;5066544;28;20044;-64
2022/07/15 03:24:07;;;;;;;6.28;1.85;;;;;;;;;;5079288;28;20110;-64
2022/07/15 03:26:33;;;;;;;3.80;1.52;;;;;;;;;;5075142;28;20032;-64
2022/07/15 03:29:00;;;;;;;5.18;2.15;;;;;;;;;;5075227;28;20621;-64
2022/07/15 03:31:27;;;;;;;8.15;2.22;;;;;;;;;;5080182;28;20044;-64
2022/07/15 03:33:55;;;;;;;4.72;1.80;;;;;;;;;;5074382;28;20079;-64
2022/07/15 03:36:21;;;;;;;5.38;1.88;;;;;;;;;;5075184;28;20048;-64
2022/07/15 03:38:49;;;;;;;8.68;2.35;;;;;;;;;;5078029;28;20115;-64
2022/07/15 03:41:15;;;;;;;6.00;1.80;;;;;;;;;;5074031;28;20139;-64
2022/07/15 03:43:41;;;;;;;8.77;2.03;;;;;;;;;;5074082;28;20123;-64
2022/07/15 03:46:07;;;;;;;7.15;2.10;;;;;;;;;;5061971;28;20044;-64
2022/07/15 03:48:33;;;;;;;7.10;1.77;;;;;;;;;;5080523;28;20037;-64
2022/07/15 03:50:59;;;;;;;10.38;1.80;;;;;;;;;;5078408;28;20116;-64
2022/07/15 03:53:25;;;;;;;5.53;1.65;;;;;;;;;;5073195;28;20094;-64
2022/07/15 03:55:51;;;;;;;7.95;2.05;;;;;;;;;;5073853;28;20036;-64
2022/07/15 03:58:17;;;;;;;6.43;2.08;;;;;;;;;;5070868;28;20051;-64
2022/07/15 04:00:43;;;;;;;6.50;2.05;;;;;;;;;;5070200;28;20041;-64
2022/07/15 04:03:09;;;;;;;8.98;1.98;;;;;;;;;;5069026;28;20037;-64
2022/07/15 04:05:35;;;;;;;8.77;2.67;;;;;;;;;;5069182;28;20032;-64
2022/07/15 04:08:01;;;;;;;8.57;2.28;;;;;;;;;;5077290;28;20064;-64
2022/07/15 04:10:27;;;;;;;8.00;2.35;;;;;;;;;;5070925;28;20075;-64
2022/07/15 04:12:53;;;;;;;7.80;2.72;;;;;;;;;;5072978;28;20059;-64
2022/07/15 04:15:19;;;;;;;7.70;2.35;;;;;;;;;;5072501;28;20046;-64
2022/07/15 04:17:45;;;;;;;7.13;2.70;;;;;;;;;;5072499;28;20040;-64
2022/07/15 04:20:12;;;;;;;5.57;2.20;;;;;;;;;;5055472;28;20457;-64
2022/07/15 04:22:41;;;;;;;10.90;3.17;;;;;;;;;;5072492;28;20037;-64
2022/07/15 04:25:08;;;;;;;8.73;2.50;;;;;;;;;;5072182;28;20033;-64
2022/07/15 04:27:34;;;;;;;8.02;2.58;;;;;;;;;;5072837;28;20093;-64
2022/07/15 04:30:00;;;;;;;8.93;2.50;;;;;;;;;;5079935;28;20116;-64
2022/07/15 04:32:26;;;;;;;7.10;2.60;;;;;;;;;;5073276;28;20063;-64
2022/07/15 04:34:53;;;;;;;7.68;2.40;;;;;;;;;;5072516;28;20041;-64
2022/07/15 04:37:21;;;;;;;6.43;2.15;;;;;;;;;;5075612;28;20096;-64
2022/07/15 04:39:47;;;;;;;6.93;2.22;;;;;;;;;;5065957;28;20048;-64
2022/07/15 04:42:13;;;;;;;8.65;2.38;;;;;;;;;;5053232;28;20045;-64
2022/07/15 04:44:40;;;;;;;9.20;2.28;;;;;;;;;;5074095;28;20071;-64
2022/07/15 04:47:06;;;;;;;10.40;2.40;;;;;;;;;;5070846;28;20417;-64
2022/07/15 04:52:16;;;;;;;10.65;2.55;;;;;;;;;;5070229;28;20041;-64
2022/07/15 04:54:43;;;;;;;9.98;2.10;;;;;;;;;;5072563;28;20048;-64
2022/07/15 04:57:09;;;;;;;7.45;2.38;;;;;;;;;;5078638;28;20433;-64
2022/07/15 04:59:35;;;;;;;6.38;2.65;;;;;;;;;;5078819;28;20076;-64
2022/07/15 05:02:01;;;;;;;8.45;2.22;;;;;;;;;;5069879;28;20037;-64
2022/07/15 05:04:27;;;;;;;8.10;2.50;;;;;;;;;;5071661;28;20107;-64
2022/07/15 05:06:53;;;;;;;5.55;2.13;;;;;;;;;;5071454;28;20421;-64
2022/07/15 05:09:19;;;;;;;8.57;2.22;;;;;;;;;;5069052;28;20059;-64
2022/07/15 05:11:45;;;;;;;6.32;2.05;;;;;;;;;;5087252;22;20066;-63
2022/07/15 05:14:11;;;;;;;7.03;1.77;;;;;;;;;;5071094;28;20029;-63
2022/07/15 05:16:37;;;;;;;5.47;1.88;;;;;;;;;;5076499;28;20413;-63
2022/07/15 05:19:03;;;;;;;7.35;2.00;;;;;;;;;;5069455;28;20094;-63
2022/07/15 05:21:29;;;;;;;7.55;2.25;;;;;;;;;;5068154;28;20051;-63
2022/07/15 05:23:56;;;;;;;7.90;1.90;;;;;;;;;;5070531;28;20091;-63
2022/07/15 05:26:22;;;;;;;9.75;2.03;;;;;;;;;;5071153;28;20032;-63
2022/07/15 05:28:48;;;;;;;6.90;1.90;;;;;;;;;;5071493;28;20460;-63
2022/07/15 05:31:14;;;;;;;7.70;2.20;;;;;;;;;;5072434;28;20040;-63
2022/07/15 05:33:40;;;;;;;5.38;1.95;;;;;;;;;;5070928;28;20056;-63
2022/07/15 05:36:06;;;;;;;4.72;1.70;;;;;;;;;;5070688;28;20043;-63
2022/07/15 05:38:32;;;;;;;9.00;2.03;;;;;;;;;;5079687;28;20033;-63
2022/07/15 05:40:58;;;;;;;11.32;2.15;;;;;;;;;;5063543;28;20037;-63
2022/07/15 05:43:24;;;;;;;5.43;2.00;;;;;;;;;;5070374;28;20379;-63
2022/07/15 05:45:50;;;;;;;4.35;1.70;;;;;;;;;;5071651;28;20116;-63
2022/07/15 05:48:16;;;;;;;4.72;1.73;;;;;;;;;;5069746;28;20036;-63
2022/07/15 05:50:42;;;;;;;6.20;2.00;;;;;;;;;;5062691;28;20037;-63
2022/07/15 05:53:08;;;;;;;4.53;1.90;;;;;;;;;;5069203;28;20043;-63
2022/07/15 05:55:34;;;;;;;5.25;1.95;;;;;;;;;;5068917;28;20075;-63
2022/07/15 05:58:00;;;;;;;8.20;2.00;;;;;;;;;;5069807;28;20040;-63
2022/07/15 06:00:26;;;;;;;5.47;1.90;;;;;;;;;;5070213;28;20040;-63
2022/07/15 06:02:52;;;;;;;3.17;1.80;;;;;;;;;;5070512;28;20086;-63
2022/07/15 06:05:19;;;;;;;4.95;1.88;;;;;;;;;;5069808;28;20032;-63
2022/07/15 06:07:45;;;;;;;5.35;1.45;;;;;;;;;;5073357;28;20063;-63
2022/07/15 06:10:11;;;;;;;2.30;1.33;;;;;;;;;;5070089;28;20063;-63
2022/07/15 06:12:37;;;;;;;6.57;1.50;;;;;;;;;;5070693;28;20397;-63
2022/07/15 06:15:03;;;;;;;4.93;1.50;;;;;;;;;;5071101;28;20525;-63
2022/07/15 06:17:30;;;;;;;2.50;0.60;;;;;;;;;;5071053;28;20136;-63
2022/07/15 06:19:56;;;;;;;4.43;0.80;;;;;;;;;;5062243;28;20040;-63
2022/07/15 06:22:22;;;;;;;4.18;0.63;;;;;;;;;;5067272;28;20041;-63
2022/07/15 06:24:48;;;;;;;1.67;0.65;;;;;;;;;;5069303;28;20036;-63
2022/07/15 06:27:14;;;;;;;3.47;0.63;;;;;;;;;;5069560;28;20036;-63
2022/07/15 06:29:40;;;;;;;2.67;0.80;;;;;;;;;;5069958;28;20512;-62
2022/07/15 06:32:07;;;;;;;1.80;0.60;;;;;;;;;;5069809;28;20120;-63
2022/07/15 06:34:33;;;;;;;3.42;0.80;;;;;;;;;;5062730;28;20502;-63
2022/07/15 06:36:59;;;;;;;1.58;0.75;;;;;;;;;;5069695;28;20032;-62
2022/07/15 06:39:26;;;;;;;5.18;0.95;;;;;;;;;;5069953;28;20055;-62
2022/07/15 06:41:52;;;;;;;3.03;0.95;;;;;;;;;;5071192;28;20394;-63
2022/07/15 06:44:18;;;;;;;4.80;1.10;;;;;;;;;;5069310;28;20036;-63
2022/07/15 06:46:44;;;;;;;4.10;0.95;;;;;;;;;;5065989;28;20044;-63
2022/07/15 06:49:10;;;;;;;2.53;0.88;;;;;;;;;;5064281;28;20079;-62
2022/07/15 06:51:36;;;;;;;5.40;1.15;;;;;;;;;;5058539;28;20040;-63
2022/07/15 06:54:02;;;;;;;3.00;0.90;;;;;;;;;;5061267;28;20037;-63
2022/07/15 06:56:29;;;;;;;4.82;1.35;;;;;;;;;;5065717;28;20094;-63
2022/07/15 06:58:55;;;;;;;5.40;1.10;;;;;;;;;;5068402;28;20098;-63
2022/07/15 07:01:22;;;;;;;5.07;1.15;;;;;;;;;;5069449;28;20041;-64
2022/07/15 07:03:49;;;;;;;3.33;0.82;;;;;;;;;;5060136;28;20045;-64
2022/07/15 07:06:15;;;;;;;4.10;0.90;;;;;;;;;;5065892;28;20044;-64
2022/07/15 07:08:41;;;;;;;6.47;0.93;;;;;;;;;;5062119;28;20029;-64
2022/07/15 07:11:07;;;;;;;4.35;0.88;;;;;;;;;;5069231;28;20044;-64
2022/07/15 07:13:33;;;;;;;4.93;0.80;;;;;;;;;;5068946;28;20044;-64
2022/07/15 07:15:59;;;;;;;4.75;0.82;;;;;;;;;;5065000;28;20036;-64
2022/07/15 07:18:25;;;;;;;2.42;0.60;;;;;;;;;;5068410;28;20043;-64
2022/07/15 07:20:51;;;;;;;2.10;0.63;;;;;;;;;;5067860;28;20114;-64
2022/07/15 07:23:17;;;;;;;2.42;0.73;;;;;;;;;;5067379;28;20041;-64
2022/07/15 07:25:43;;;;;;;5.07;0.80;;;;;;;;;;5068615;28;20043;-64
2022/07/15 07:28:09;;;;;;;3.45;0.50;;;;;;;;;;5067023;28;20402;-64
2022/07/15 07:30:35;;;;;;;2.67;0.50;;;;;;;;;;5071545;28;20399;-64
2022/07/15 07:33:02;;;;;;;1.27;0.52;;;;;;;;;;5073952;28;20047;-64
2022/07/15 07:35:28;;;;;;;2.75;0.70;;;;;;;;;;5070692;28;20044;-64
2022/07/15 07:37:54;;;;;;;2.53;0.80;;;;;;;;;;5072825;28;20573;-64
2022/07/15 07:40:20;;;;;;;2.33;0.60;;;;;;;;;;5070485;28;20544;-64
2022/07/15 07:42:46;;;;;;;1.42;0.60;;;;;;;;;;5073485;28;20395;-64
2022/07/15 07:45:13;;;;;;;2.85;0.50;;;;;;;;;;5072546;28;20107;-63
2022/07/15 07:47:43;;;;;;;5.28;0.80;;;;;;;;;;5071857;28;20047;-64
2022/07/15 07:50:10;;;;;;;5.60;0.70;;;;;;;;;;5071867;28;20432;-64
2022/07/15 07:52:36;;;;;;;2.20;0.50;;;;;;;;;;5066533;28;20041;-63
2022/07/15 07:55:03;;;;;;;5.82;0.80;;;;;;;;;;5064683;28;20092;-64
2022/07/15 07:57:29;;;;;;;1.65;0.70;;;;;;;;;;5071169;28;20405;-64
2022/07/15 07:59:55;;;;;;;2.50;0.40;;;;;;;;;;5069497;28;20044;-63
2022/07/15 08:02:21;;;;;;;3.13;0.55;;;;;;;;;;5072727;28;20139;-64
2022/07/15 08:04:47;;;;;;;5.90;0.70;;;;;;;;;;5071843;28;20029;-64
2022/07/15 08:07:13;;;;;;;3.17;0.63;;;;;;;;;;5073227;28;20033;-64
2022/07/15 08:09:39;;;;;;;1.60;0.40;;;;;;;;;;5072282;28;20045;-64
2022/07/15 08:12:05;;;;;;;2.17;0.40;;;;;;;;;;5070539;28;20094;-64
2022/07/15 08:14:31;;;;;;;1.65;0.30;;;;;;;;;;5078625;28;20159;-64
2022/07/15 08:16:57;;;;;;;1.20;0.40;;;;;;;;;;5064074;28;20123;-64
2022/07/15 08:19:23;;;;;;;2.28;0.65;;;;;;;;;;5064497;28;20040;-64
2022/07/15 08:21:50;;;;;;;2.13;0.60;;;;;;;;;;5085935;28;20075;-64
2022/07/15 08:24:16;;;;;;;2.00;0.60;;;;;;;;;;5088565;28;20044;-64
2022/07/15 08:26:43;;;;;;;3.80;0.50;;;;;;;;;;5065367;28;20043;-64
2022/07/15 08:29:09;;;;;;;3.08;0.50;;;;;;;;;;5067691;28;20044;-64
2022/07/15 08:31:36;;;;;;;1.48;0.30;;;;;;;;;;5072166;28;20036;-64
2022/07/15 08:34:03;;;;;;;0.98;0.40;;;;;;;;;;5080694;28;20036;-64
2022/07/15 08:36:30;;;;;;;1.63;0.40;;;;;;;;;;5069504;28;20502;-64
2022/07/15 08:38:56;;;;;;;3.75;0.60;;;;;;;;;;5063676;28;20375;-64
2022/07/15 08:41:22;;;;;;;1.17;0.40;;;;;;;;;;5070932;28;20041;-64
2022/07/15 08:43:48;;;;;;;3.22;0.40;;;;;;;;;;5072640;28;20040;-64
2022/07/15 08:46:16;;;;;;;3.30;0.75;;;;;;;;;;5071685;28;20044;-64
2022/07/15 08:48:44;;;;;;;0.85;0.30;;;;;;;;;;5070659;28;20082;-64
2022/07/15 08:51:10;;;;;;;2.05;0.40;;;;;;;;;;5061106;28;20037;-64
2022/07/15 08:53:37;;;;;;;1.83;0.50;;;;;;;;;;5066171;28;20513;-64
2022/07/15 08:56:03;;;;;;;4.32;0.50;;;;;;;;;;5074549;28;20044;-64
2022/07/15 08:58:29;;;;;;;0.98;0.30;;;;;;;;;;5070385;28;20487;-64
2022/07/15 09:00:55;;;;;;;3.25;0.40;;;;;;;;;;5068221;28;20486;-64
2022/07/15 09:03:21;;;;;;;0.47;0.20;;;;;;;;;;5069343;28;20029;-64
2022/07/15 09:05:47;;;;;;;2.45;0.73;;;;;;;;;;5069685;28;20043;-64
2022/07/15 09:08:14;;;;;;;1.58;0.30;;;;;;;;;;5068740;28;20067;-64
2022/07/15 09:10:43;;;;;;;1.90;0.20;;;;;;;;;;5083981;28;20512;-64
2022/07/15 09:13:10;;;;;;;3.25;0.75;;;;;;;;;;5075785;28;20039;-64
2022/07/15 09:15:37;;;;;;;1.40;0.57;;;;;;;;;;5069359;28;20036;-64
2022/07/15 09:18:07;;;;;;;1.98;0.38;;;;;;;;;;5070989;28;20097;-64
2022/07/15 09:20:33;;;;;;;1.45;0.57;;;;;;;;;;5078409;28;20079;-64
2022/07/15 09:23:00;;;;;;;0.98;0.30;;;;;;;;;;5073951;28;20033;-63
2022/07/15 09:25:27;;;;;;;1.10;0.28;;;;;;;;;;5070942;28;20112;-64
2022/07/15 09:27:53;;;;;;;1.15;0.32;;;;;;;;;;5072678;28;20039;-64
2022/07/15 09:36:04;;;;;;;1.08;0.22;;;;;;;;;;5076060;28;20071;-64
2022/07/15 09:38:32;;;;;;;1.63;0.60;;;;;;;;;;5076697;28;20086;-65
2022/07/15 09:40:58;;;;;;;4.75;0.43;;;;;;;;;;5082700;28;20516;-64
2022/07/15 09:43:24;;;;;;;1.58;0.30;;;;;;;;;;5071463;28;20068;-64
2022/07/15 09:46:00;;;;;;;0.43;0.25;;;;;;;;;;5069801;28;20036;-64
2022/07/15 09:48:28;;;;;;;2.78;0.30;;;;;;;;;;5069707;28;20068;-64
2022/07/15 09:50:59;;;;;;;1.80;0.40;;;;;;;;;;5071348;28;20048;-64
2022/07/15 09:53:25;;;;;;;2.08;0.40;;;;;;;;;;5072253;28;20060;-64
2022/07/15 09:55:51;;;;;;;1.33;0.30;;;;;;;;;;5065431;28;20040;-64
2022/07/15 09:58:19;;;;;;;0.88;0.30;;;;;;;;;;5068077;28;20040;-64
2022/07/15 10:00:45;;;;;;;1.73;0.38;;;;;;;;;;5064323;28;20323;-64
2022/07/15 10:03:11;;;;;;;1.38;0.32;;;;;;;;;;5079981;28;20040;-63
2022/07/15 10:05:39;;;;;;;2.25;0.73;;;;;;;;;;5070545;28;20109;-64
2022/07/15 10:08:06;;;;;;;2.65;0.43;;;;;;;;;;5069969;28;20397;-63
2022/07/15 10:10:33;;;;;;;1.70;0.40;;;;;;;;;;5070574;28;20077;-63
2022/07/15 10:13:18;;;;;;;1.38;0.25;;;;;;;;;;5075757;28;20035;-64
2022/07/15 10:15:59;;;;;;;1.75;0.40;;;;;;;;;;5069535;28;20035;-63
2022/07/15 10:18:34;;;;;;;0.52;0.32;;;;;;;;;;5068176;28;20090;-63
2022/07/15 10:21:07;;;;;;;3.65;0.60;;;;;;;;;;5067643;28;20041;-64
2022/07/15 10:23:57;;;;;;;1.40;0.32;;;;;;;;;;5073918;28;20061;-64
2022/07/15 10:26:33;;;;;;;2.35;0.40;;;;;;;;;;5081995;28;20039;-64
2022/07/15 10:29:03;;;;;;;2.28;0.40;;;;;;;;;;5082651;28;20127;-64
2022/07/15 10:31:30;;;;;;;1.92;0.50;;;;;;;;;;5070464;28;20465;-63
2022/07/15 10:34:02;;;;;;;0.88;0.40;;;;;;;;;;5066097;28;20048;-64
2022/07/15 10:36:40;;;;;;;1.95;0.30;;;;;;;;;;5064108;28;20033;-64
2022/07/15 10:39:08;;;;;;;1.23;0.30;;;;;;;;;;5073537;28;20041;-64
2022/07/15 10:42:02;;;;;;;0.57;0.35;;;;;;;;;;5071308;28;20085;-64
2022/07/15 10:44:32;;;;;;;1.95;0.40;;;;;;;;;;5069043;28;20057;-64
2022/07/15 10:47:13;;;;;;;2.38;0.47;;;;;;;;;;5072995;28;20044;-64
2022/07/15 10:49:43;;;;;;;1.33;0.50;;;;;;;;;;5067206;28;20079;-65
2022/07/15 10:52:11;;;;;;;2.95;0.40;;;;;;;;;;5066160;28;20049;-65
2022/07/15 10:54:39;;;;;;;1.52;0.32;;;;;;;;;;5066564;28;20048;-65
2022/07/15 10:57:05;;;;;;;1.15;0.43;;;;;;;;;;5068366;28;20090;-64
2022/07/15 10:59:36;;;;;;;4.22;0.30;;;;;;;;;;5072605;28;20032;-65
2022/07/15 11:02:03;;;;;;;;;;;;;;;;;;5067255;28;20038;-65
2022/07/15 11:04:31;;;;;;;1.80;0.30;;;;;;;;;;5067374;28;20412;-64
2022/07/15 11:07:11;;;;;;;1.38;0.30;;;;;;;;;;5069459;28;20067;-64
2022/07/15 11:13:00;;;;;;;5.68;0.60;;;;;;;;;;5097511;22;20129;-63
2022/07/15 11:15:26;;;;;;;1.67;0.40;;;;;;;;;;5090796;28;20177;-63
2022/07/15 11:17:55;;;;;;;2.17;0.35;;;;;;;;;;5093363;28;20043;-63
2022/07/15 11:20:26;;;;;;;1.63;0.40;;;;;;;;;;5090853;28;20048;-63
2022/07/15 11:22:52;;;;;;;;;;;;;;;;;;5083719;28;20029;-63
2022/07/15 11:25:21;;;;;;;2.33;0.40;;;;;;;;;;5073229;28;19922;-63
2022/07/15 11:28:04;;;;;;;2.33;0.70;;;;;;;;;;5075303;28;20040;-63
2022/07/15 11:30:41;;;;;;;1.30;0.40;;;;;;;;;;5070069;28;20528;-63
2022/07/15 11:33:11;;;;;;;1.95;0.30;;;;;;;;;;5072449;28;20048;-63
2022/07/15 11:36:03;;;;;;;1.67;0.52;;;;;;;;;;5072846;28;20032;-63
2022/07/15 11:38:31;;;;;;;2.53;0.40;;;;;;;;;;5075814;28;20040;-63
2022/07/15 11:46:32;;;;;;;3.20;0.73;;;;;;;;;;5074152;28;20062;-63
2022/07/15 11:48:58;;;;;;;1.65;0.50;;;;;;;;;;5075004;28;20028;-63
2022/07/15 11:51:26;;;;;;;1.60;0.40;;;;;;;;;;5075706;28;20065;-63
2022/07/15 11:53:52;;;;;;;1.98;1.05;;;;;;;;;;5074537;28;20090;-63
2022/07/15 11:56:18;;;;;;;2.65;0.70;;;;;;;;;;5077359;28;20036;-63
2022/07/15 11:58:45;;;;;;;0.98;0.45;;;;;;;;;;5072075;28;20089;-63
2022/07/15 12:01:13;;;;;;;1.13;0.40;;;;;;;;;;5076872;28;20037;-63
2022/07/15 12:03:43;;;;;;;1.08;0.60;;;;;;;;;;5075837;28;20393;-63
2022/07/15 12:06:22;;;;;;;1.20;0.43;;;;;;;;;;5077737;28;20036;-63
2022/07/15 12:08:51;;;;;;;4.05;0.45;;;;;;;;;;5076210;28;20033;-63
2022/07/15 12:11:18;;;;;;;1.20;0.52;;;;;;;;;;5072509;28;20049;-64
2022/07/15 12:13:46;;;;;;;3.25;0.40;;;;;;;;;;5077653;28;20511;-63
2022/07/15 12:16:13;;;;;;;1.58;0.43;;;;;;;;;;5077392;28;20393;-63
2022/07/15 12:18:39;;;;;;;1.08;0.38;;;;;;;;;;5077369;28;20393;-63
2022/07/15 12:21:05;;;;;;;1.55;0.47;;;;;;;;;;5080263;28;20044;-63
2022/07/15 12:23:31;;;;;;;1.15;0.50;;;;;;;;;;5069329;28;20032;-63
2022/07/15 12:26:04;;;;;;;1.45;0.50;;;;;;;;;;5073351;28;20119;-63
2022/07/15 12:28:31;;;;;;;2.75;0.60;;;;;;;;;;5082027;28;20413;-63
2022/07/15 12:30:57;;;;;;;1.13;0.38;;;;;;;;;;5073884;28;20123;-63
2022/07/15 12:33:23;;;;;;;2.45;0.65;;;;;;;;;;5071966;28;20623;-63
2022/07/15 12:35:49;;;;;;;4.72;0.50;;;;;;;;;;5077797;28;20032;-63
2022/07/15 12:38:29;;;;;;;2.28;0.50;;;;;;;;;;5078070;28;20099;-63
2022/07/15 12:41:05;;;;;;;2.53;0.50;;;;;;;;;;5074043;28;20558;-63
2022/07/15 12:43:47;;;;;;;1.75;0.50;;;;;;;;;;5080177;28;20044;-66
2022/07/15 12:46:14;;;;;;;2.03;0.57;;;;;;;;;;5068578;28;20158;-65
2022/07/15 12:48:50;;;;;;;1.23;0.40;;;;;;;;;;5077670;28;20121;-66
2022/07/15 12:51:17;;;;;;;1.85;0.43;;;;;;;;;;5071985;28;20063;-66
2022/07/15 12:53:44;;;;;;;1.85;0.40;;;;;;;;;;5071429;28;20051;-66
2022/07/15 12:56:10;;;;;;;1.08;0.40;;;;;;;;;;5075792;28;20422;-66
2022/07/15 12:58:37;;;;;;;2.38;0.45;;;;;;;;;;5080578;28;20051;-65
2022/07/15 13:01:05;;;;;;;1.77;0.63;;;;;;;;;;5072848;28;20067;-65
2022/07/15 13:03:31;;;;;;;0.68;0.30;;;;;;;;;;5067445;28;20469;-66
2022/07/15 13:05:58;;;;;;;3.60;0.45;;;;;;;;;;5076302;28;20131;-66
2022/07/15 13:08:25;;;;;;;1.33;0.32;;;;;;;;;;5074466;28;20040;-65
2022/07/15 13:10:53;;;;;;;1.35;0.50;;;;;;;;;;5071434;28;20047;-65
2022/07/15 13:13:20;;;;;;;0.98;0.50;;;;;;;;;;5073387;28;20044;-66
2022/07/15 13:15:47;;;;;;;1.48;0.40;;;;;;;;;;5076787;28;20074;-66
2022/07/15 13:18:14;;;;;;;4.20;0.60;;;;;;;;;;5070301;28;20067;-66
2022/07/15 13:20:40;;;;;;;1.40;0.45;;;;;;;;;;5069556;28;20120;-66
2022/07/15 13:23:06;;;;;;;3.03;0.85;;;;;;;;;;5068941;28;20029;-66
2022/07/15 13:25:32;;;;;;;1.73;0.40;;;;;;;;;;5067812;28;20375;-67
2022/07/15 13:27:58;;;;;;;1.95;0.50;;;;;;;;;;5075913;28;20123;-66
2022/07/15 13:30:25;;;;;;;1.05;0.50;;;;;;;;;;5063380;28;20093;-65
2022/07/15 13:32:51;;;;;;;0.68;0.40;;;;;;;;;;5080232;28;20068;-65
2022/07/15 13:35:17;;;;;;;0.73;0.50;;;;;;;;;;5081910;28;20101;-66
2022/07/15 13:37:44;;;;;;;3.08;0.63;;;;;;;;;;5074158;28;20074;-66
2022/07/15 13:40:11;;;;;;;1.75;0.30;;;;;;;;;;5071453;28;20340;-66
2022/07/15 13:42:38;;;;;;;0.70;0.43;;;;;;;;;;5082368;28;20505;-66
2022/07/15 13:45:04;;;;;;;1.15;0.40;;;;;;;;;;5074865;28;20098;-66
2022/07/15 13:47:30;;;;;;;22.63;1.80;;;;;;;;;;5080823;28;20137;-66
2022/07/15 13:52:42;;;;;;;1.35;0.32;;;;;;;;;;5074119;28;20039;-66
2022/07/15 13:55:08;;;;;;;0.90;0.40;;;;;;;;;;5072664;28;20040;-66
2022/07/15 13:57:34;;;;;;;1.92;0.50;;;;;;;;;;5072525;28;20097;-66
2022/07/15 14:00:01;;;;;;;1.80;0.38;;;;;;;;;;5077170;28;20036;-65
2022/07/15 14:02:27;;;;;;;3.80;0.50;;;;;;;;;;5079531;28;20051;-66
2022/07/15 14:04:53;;;;;;;1.33;0.55;;;;;;;;;;5077680;28;20033;-66
2022/07/15 14:07:19;;;;;;;1.60;0.30;;;;;;;;;;5073140;28;20443;-66
2022/07/15 14:09:45;;;;;;;2.15;0.40;;;;;;;;;;5080369;28;20044;-65
2022/07/15 14:12:11;;;;;;;3.22;0.60;;;;;;;;;;5070775;28;20128;-65
2022/07/15 14:14:37;;;;;;;1.33;0.38;;;;;;;;;;5076127;28;20114;-65
2022/07/15 14:17:03;;;;;;;0.95;0.40;;;;;;;;;;5075366;28;20101;-65
2022/07/15 14:19:29;;;;;;;2.28;0.50;;;;;;;;;;5080768;28;20498;-66
2022/07/15 14:21:55;;;;;;;3.33;0.38;;;;;;;;;;5073367;28;20047;-65
2022/07/15 14:24:21;;;;;;;2.13;0.40;;;;;;;;;;5072348;28;20041;-65
2022/07/15 14:26:47;;;;;;;2.20;0.40;;;;;;;;;;5081985;28;20032;-65
2022/07/15 14:29:13;;;;;;;3.05;0.60;;;;;;;;;;5074771;28;20497;-65
2022/07/15 14:31:39;;;;;;;7.15;0.65;;;;;;;;;;5077137;28;20032;-65
2022/07/15 14:34:06;;;;;;;1.73;0.50;;;;;;;;;;5079184;28;20029;-65
2022/07/15 14:36:32;;;;;;;1.35;0.47;;;;;;;;;;5070136;28;20125;-66
2022/07/15 14:38:58;;;;;;;4.18;0.45;;;;;;;;;;5071481;28;20171;-66
2022/07/15 14:41:24;;;;;;;1.20;0.32;;;;;;;;;;5081283;28;20498;-66
2022/07/15 14:43:50;;;;;;;1.15;0.50;;;;;;;;;;5076879;28;20039;-66
2022/07/15 14:46:16;;;;;;;2.38;0.50;;;;;;;;;;5071645;28;20044;-66
2022/07/15 14:48:42;;;;;;;1.75;0.43;;;;;;;;;;5075934;28;20120;-64
2022/07/15 14:51:08;;;;;;;1.23;0.50;;;;;;;;;;5076952;28;20120;-64
2022/07/15 14:53:34;;;;;;;1.55;0.40;;;;;;;;;;5073461;28;20036;-64
2022/07/15 14:56:00;;;;;;;1.48;0.63;;;;;;;;;;5067706;28;20040;-64
2022/07/15 14:58:26;;;;;;;1.67;0.50;;;;;;;;;;5084377;28;20062;-64
2022/07/15 15:00:52;;;;;;;1.10;0.85;;;;;;;;;;5069143;28;20059;-64
2022/07/15 15:03:18;;;;;;;1.13;0.50;;;;;;;;;;5071508;28;20040;-64
2022/07/15 15:05:44;;;;;;;0.90;0.50;;;;;;;;;;5073341;28;20044;-65